sensor_id;sensor_type;location;lat;lon;timestamp;P1;durP1;ratioP1;P2;durP2;ratioP2
43014;SDS011;28637;50.554;7.032;2024-03-29T00:02:46;2.67;;;0.60;;
43014;SDS011;28637;50.554;7.032;2024-03-29T00:07:47;4.03;;;0.50;;
43014;SDS011;28637;50.554;7.032;2024-03-29T00:12:48;1.70;;;0.30;;
43014;SDS011;28637;50.554;7.032;2024-03-29T00:17:49;1.88;;;0.60;;
43014;SDS011;28637;50.554;7.032;2024-03-29T00:22:50;5.18;;;1.30;;
43014;SDS011;28637;50.554;7.032;2024-03-29T00:27:51;4.23;;;0.80;;
43014;SDS011;28637;50.554;7.032;2024-03-29T00:32:52;2.78;;;0.70;;
43014;SDS011;28637;50.554;7.032;2024-03-29T00:37:53;3.13;;;0.70;;
43014;SDS011;28637;50.554;7.032;2024-03-29T00:42:53;4.45;;;0.82;;
43014;SDS011;28637;50.554;7.032;2024-03-29T00:47:54;0.87;;;0.40;;
43014;SDS011;28637;50.554;7.032;2024-03-29T00:52:55;4.23;;;0.70;;
43014;SDS011;28637;50.554;7.032;2024-03-29T00:57:56;2.63;;;0.70;;
43014;SDS011;28637;50.554;7.032;2024-03-29T01:02:57;3.50;;;0.68;;
43014;SDS011;28637;50.554;7.032;2024-03-29T01:07:57;3.47;;;0.70;;
43014;SDS011;28637;50.554;7.032;2024-03-29T01:12:58;2.10;;;0.80;;
43014;SDS011;28637;50.554;7.032;2024-03-29T01:17:59;2.50;;;0.87;;
43014;SDS011;28637;50.554;7.032;2024-03-29T01:23:00;2.50;;;0.90;;
43014;SDS011;28637;50.554;7.032;2024-03-29T01:28:00;1.30;;;0.60;;
43014;SDS011;28637;50.554;7.032;2024-03-29T01:33:01;1.83;;;0.70;;
43014;SDS011;28637;50.554;7.032;2024-03-29T01:38:02;0.77;;;0.63;;
43014;SDS011;28637;50.554;7.032;2024-03-29T01:43:03;1.67;;;0.97;;
43014;SDS011;28637;50.554;7.032;2024-03-29T01:48:06;2.33;;;0.70;;
43014;SDS011;28637;50.554;7.032;2024-03-29T01:53:09;5.55;;;0.90;;
43014;SDS011;28637;50.554;7.032;2024-03-29T01:58:10;2.10;;;0.80;;
43014;SDS011;28637;50.554;7.032;2024-03-29T02:03:11;4.00;;;1.05;;
43014;SDS011;28637;50.554;7.032;2024-03-29T02:08:14;3.20;;;0.85;;
43014;SDS011;28637;50.554;7.032;2024-03-29T02:13:16;1.02;;;0.70;;
43014;SDS011;28637;50.554;7.032;2024-03-29T02:18:17;2.47;;;0.80;;
43014;SDS011;28637;50.554;7.032;2024-03-29T02:23:22;2.53;;;0.75;;
43014;SDS011;28637;50.554;7.032;2024-03-29T02:28:30;3.03;;;0.70;;
43014;SDS011;28637;50.554;7.032;2024-03-29T02:33:31;1.67;;;0.80;;
43014;SDS011;28637;50.554;7.032;2024-03-29T02:38:31;1.07;;;0.73;;
43014;SDS011;28637;50.554;7.032;2024-03-29T02:43:32;1.83;;;0.60;;
43014;SDS011;28637;50.554;7.032;2024-03-29T02:48:33;3.60;;;1.10;;
43014;SDS011;28637;50.554;7.032;2024-03-29T02:53:33;1.60;;;0.60;;
43014;SDS011;28637;50.554;7.032;2024-03-29T02:58:34;4.70;;;0.97;;
43014;SDS011;28637;50.554;7.032;2024-03-29T03:03:36;3.10;;;0.90;;
43014;SDS011;28637;50.554;7.032;2024-03-29T03:08:37;3.25;;;0.80;;
43014;SDS011;28637;50.554;7.032;2024-03-29T03:13:56;1.95;;;0.68;;
43014;SDS011;28637;50.554;7.032;2024-03-29T03:18:57;1.73;;;0.80;;
43014;SDS011;28637;50.554;7.032;2024-03-29T03:23:57;4.30;;;0.80;;
43014;SDS011;28637;50.554;7.032;2024-03-29T03:28:58;4.13;;;0.85;;
43014;SDS011;28637;50.554;7.032;2024-03-29T03:33:59;1.60;;;0.93;;
43014;SDS011;28637;50.554;7.032;2024-03-29T03:38:59;1.83;;;0.87;;
43014;SDS011;28637;50.554;7.032;2024-03-29T03:44:00;2.40;;;0.55;;
43014;SDS011;28637;50.554;7.032;2024-03-29T03:49:01;2.67;;;1.00;;
43014;SDS011;28637;50.554;7.032;2024-03-29T03:54:01;1.17;;;0.65;;
43014;SDS011;28637;50.554;7.032;2024-03-29T03:59:02;4.27;;;0.77;;
43014;SDS011;28637;50.554;7.032;2024-03-29T04:04:03;1.10;;;0.80;;
43014;SDS011;28637;50.554;7.032;2024-03-29T04:09:04;2.00;;;1.03;;
43014;SDS011;28637;50.554;7.032;2024-03-29T04:14:04;2.30;;;0.97;;
43014;SDS011;28637;50.554;7.032;2024-03-29T04:19:05;1.50;;;0.80;;
43014;SDS011;28637;50.554;7.032;2024-03-29T04:24:06;2.28;;;1.10;;
43014;SDS011;28637;50.554;7.032;2024-03-29T04:29:10;2.65;;;1.00;;
43014;SDS011;28637;50.554;7.032;2024-03-29T04:34:11;1.88;;;1.02;;
43014;SDS011;28637;50.554;7.032;2024-03-29T04:39:12;1.47;;;0.73;;
43014;SDS011;28637;50.554;7.032;2024-03-29T04:44:13;1.77;;;1.20;;
43014;SDS011;28637;50.554;7.032;2024-03-29T04:49:23;1.30;;;0.70;;
43014;SDS011;28637;50.554;7.032;2024-03-29T04:54:44;1.08;;;0.80;;
43014;SDS011;28637;50.554;7.032;2024-03-29T04:59:44;3.27;;;0.90;;
43014;SDS011;28637;50.554;7.032;2024-03-29T05:04:45;7.87;;;1.50;;
43014;SDS011;28637;50.554;7.032;2024-03-29T05:09:46;3.10;;;0.90;;
43014;SDS011;28637;50.554;7.032;2024-03-29T05:14:47;3.33;;;0.90;;
43014;SDS011;28637;50.554;7.032;2024-03-29T05:19:49;1.98;;;0.90;;
43014;SDS011;28637;50.554;7.032;2024-03-29T05:24:53;1.13;;;0.70;;
43014;SDS011;28637;50.554;7.032;2024-03-29T05:29:56;2.97;;;1.00;;
43014;SDS011;28637;50.554;7.032;2024-03-29T05:34:57;1.67;;;0.70;;
43014;SDS011;28637;50.554;7.032;2024-03-29T05:39:58;3.27;;;0.87;;
43014;SDS011;28637;50.554;7.032;2024-03-29T05:44:59;1.50;;;0.90;;
43014;SDS011;28637;50.554;7.032;2024-03-29T05:50:00;1.80;;;0.90;;
43014;SDS011;28637;50.554;7.032;2024-03-29T05:55:01;0.70;;;0.70;;
43014;SDS011;28637;50.554;7.032;2024-03-29T06:00:07;1.02;;;0.70;;
43014;SDS011;28637;50.554;7.032;2024-03-29T06:05:09;3.60;;;0.98;;
43014;SDS011;28637;50.554;7.032;2024-03-29T06:10:10;1.70;;;0.70;;
43014;SDS011;28637;50.554;7.032;2024-03-29T06:15:11;2.00;;;0.77;;
43014;SDS011;28637;50.554;7.032;2024-03-29T06:20:30;2.40;;;0.80;;
43014;SDS011;28637;50.554;7.032;2024-03-29T06:25:31;1.70;;;0.80;;
43014;SDS011;28637;50.554;7.032;2024-03-29T06:30:32;1.10;;;0.73;;
43014;SDS011;28637;50.554;7.032;2024-03-29T06:35:33;0.80;;;0.70;;
43014;SDS011;28637;50.554;7.032;2024-03-29T06:40:34;2.37;;;0.67;;
43014;SDS011;28637;50.554;7.032;2024-03-29T06:45:35;1.42;;;0.60;;
43014;SDS011;28637;50.554;7.032;2024-03-29T06:50:39;1.02;;;0.60;;
43014;SDS011;28637;50.554;7.032;2024-03-29T06:55:41;1.10;;;0.60;;
43014;SDS011;28637;50.554;7.032;2024-03-29T07:00:43;0.93;;;0.60;;
43014;SDS011;28637;50.554;7.032;2024-03-29T07:05:46;1.10;;;0.50;;
43014;SDS011;28637;50.554;7.032;2024-03-29T07:10:47;0.97;;;0.60;;
43014;SDS011;28637;50.554;7.032;2024-03-29T07:15:57;1.15;;;0.60;;
43014;SDS011;28637;50.554;7.032;2024-03-29T07:20:59;1.38;;;0.50;;
43014;SDS011;28637;50.554;7.032;2024-03-29T07:26:00;0.30;;;0.30;;
43014;SDS011;28637;50.554;7.032;2024-03-29T07:31:06;1.08;;;0.43;;
43014;SDS011;28637;50.554;7.032;2024-03-29T07:36:07;1.83;;;0.40;;
43014;SDS011;28637;50.554;7.032;2024-03-29T07:41:10;0.47;;;0.47;;
43014;SDS011;28637;50.554;7.032;2024-03-29T07:46:11;0.70;;;0.50;;
43014;SDS011;28637;50.554;7.032;2024-03-29T07:51:12;0.63;;;0.30;;
43014;SDS011;28637;50.554;7.032;2024-03-29T07:56:13;0.50;;;0.37;;
43014;SDS011;28637;50.554;7.032;2024-03-29T08:01:20;0.50;;;0.30;;
43014;SDS011;28637;50.554;7.032;2024-03-29T08:06:22;1.08;;;0.43;;
43014;SDS011;28637;50.554;7.032;2024-03-29T08:11:25;0.50;;;0.30;;
43014;SDS011;28637;50.554;7.032;2024-03-29T08:16:26;1.50;;;0.30;;
43014;SDS011;28637;50.554;7.032;2024-03-29T08:26:29;0.22;;;0.22;;
43014;SDS011;28637;50.554;7.032;2024-03-29T08:31:30;0.40;;;0.20;;
43014;SDS011;28637;50.554;7.032;2024-03-29T08:36:31;0.20;;;0.20;;
43014;SDS011;28637;50.554;7.032;2024-03-29T08:41:32;1.07;;;0.20;;
43014;SDS011;28637;50.554;7.032;2024-03-29T08:46:33;0.57;;;0.37;;
43014;SDS011;28637;50.554;7.032;2024-03-29T08:51:34;0.20;;;0.20;;
43014;SDS011;28637;50.554;7.032;2024-03-29T08:56:34;0.97;;;0.30;;
43014;SDS011;28637;50.554;7.032;2024-03-29T09:01:37;0.20;;;0.10;;
43014;SDS011;28637;50.554;7.032;2024-03-29T09:06:42;0.20;;;0.20;;
43014;SDS011;28637;50.554;7.032;2024-03-29T09:11:43;0.57;;;0.20;;
43014;SDS011;28637;50.554;7.032;2024-03-29T09:16:44;0.50;;;0.30;;
43014;SDS011;28637;50.554;7.032;2024-03-29T09:21:47;0.30;;;0.20;;
43014;SDS011;28637;50.554;7.032;2024-03-29T09:26:51;0.30;;;0.23;;
43014;SDS011;28637;50.554;7.032;2024-03-29T09:31:52;0.30;;;0.20;;
43014;SDS011;28637;50.554;7.032;2024-03-29T09:36:53;0.50;;;0.30;;
43014;SDS011;28637;50.554;7.032;2024-03-29T09:41:53;0.30;;;0.30;;
43014;SDS011;28637;50.554;7.032;2024-03-29T09:46:59;1.13;;;0.30;;
43014;SDS011;28637;50.554;7.032;2024-03-29T09:52:03;1.20;;;0.40;;
43014;SDS011;28637;50.554;7.032;2024-03-29T09:57:05;0.75;;;0.20;;
43014;SDS011;28637;50.554;7.032;2024-03-29T10:02:11;0.30;;;0.20;;
43014;SDS011;28637;50.554;7.032;2024-03-29T10:07:18;2.50;;;0.37;;
43014;SDS011;28637;50.554;7.032;2024-03-29T10:12:20;0.80;;;0.38;;
43014;SDS011;28637;50.554;7.032;2024-03-29T10:17:21;0.30;;;0.30;;
43014;SDS011;28637;50.554;7.032;2024-03-29T10:22:21;0.70;;;0.20;;
43014;SDS011;28637;50.554;7.032;2024-03-29T10:27:24;0.30;;;0.30;;
43014;SDS011;28637;50.554;7.032;2024-03-29T10:32:27;0.85;;;0.45;;
43014;SDS011;28637;50.554;7.032;2024-03-29T10:37:27;0.70;;;0.30;;
43014;SDS011;28637;50.554;7.032;2024-03-29T10:42:29;0.40;;;0.20;;
43014;SDS011;28637;50.554;7.032;2024-03-29T10:47:33;0.60;;;0.28;;
43014;SDS011;28637;50.554;7.032;2024-03-29T10:52:34;0.45;;;0.10;;
43014;SDS011;28637;50.554;7.032;2024-03-29T10:57:35;0.32;;;0.30;;
43014;SDS011;28637;50.554;7.032;2024-03-29T11:07:57;0.70;;;0.25;;
43014;SDS011;28637;50.554;7.032;2024-03-29T11:18:11;1.65;;;0.50;;
43014;SDS011;28637;50.554;7.032;2024-03-29T11:23:17;0.57;;;0.40;;
43014;SDS011;28637;50.554;7.032;2024-03-29T11:28:23;0.85;;;0.40;;
43014;SDS011;28637;50.554;7.032;2024-03-29T11:33:33;1.20;;;0.57;;
43014;SDS011;28637;50.554;7.032;2024-03-29T11:38:35;0.57;;;0.52;;
43014;SDS011;28637;50.554;7.032;2024-03-29T11:43:36;0.47;;;0.47;;
43014;SDS011;28637;50.554;7.032;2024-03-29T11:48:38;0.40;;;0.40;;
43014;SDS011;28637;50.554;7.032;2024-03-29T11:53:40;0.32;;;0.30;;
43014;SDS011;28637;50.554;7.032;2024-03-29T11:58:42;1.13;;;0.40;;
43014;SDS011;28637;50.554;7.032;2024-03-29T12:03:43;0.97;;;0.53;;
43014;SDS011;28637;50.554;7.032;2024-03-29T12:08:44;1.42;;;0.60;;
43014;SDS011;28637;50.554;7.032;2024-03-29T12:13:45;0.90;;;0.50;;
43014;SDS011;28637;50.554;7.032;2024-03-29T12:18:49;0.40;;;0.40;;
43014;SDS011;28637;50.554;7.032;2024-03-29T12:23:50;0.68;;;0.40;;
43014;SDS011;28637;50.554;7.032;2024-03-29T12:28:50;0.47;;;0.40;;
43014;SDS011;28637;50.554;7.032;2024-03-29T12:33:52;1.38;;;0.47;;
43014;SDS011;28637;50.554;7.032;2024-03-29T12:38:56;1.48;;;0.50;;
43014;SDS011;28637;50.554;7.032;2024-03-29T12:44:02;1.13;;;0.50;;
43014;SDS011;28637;50.554;7.032;2024-03-29T12:49:02;0.87;;;0.60;;
43014;SDS011;28637;50.554;7.032;2024-03-29T12:54:03;2.20;;;0.50;;
43014;SDS011;28637;50.554;7.032;2024-03-29T13:04:06;1.67;;;0.60;;
43014;SDS011;28637;50.554;7.032;2024-03-29T13:09:07;0.83;;;0.40;;
43014;SDS011;28637;50.554;7.032;2024-03-29T13:14:08;1.40;;;0.63;;
43014;SDS011;28637;50.554;7.032;2024-03-29T13:19:09;0.30;;;0.30;;
43014;SDS011;28637;50.554;7.032;2024-03-29T13:24:10;0.40;;;0.40;;
43014;SDS011;28637;50.554;7.032;2024-03-29T13:29:10;1.60;;;0.50;;
43014;SDS011;28637;50.554;7.032;2024-03-29T13:34:15;0.93;;;0.28;;
43014;SDS011;28637;50.554;7.032;2024-03-29T13:39:17;0.75;;;0.40;;
43014;SDS011;28637;50.554;7.032;2024-03-29T13:44:18;1.83;;;0.30;;
43014;SDS011;28637;50.554;7.032;2024-03-29T13:49:19;2.05;;;0.40;;
43014;SDS011;28637;50.554;7.032;2024-03-29T13:54:20;1.42;;;0.50;;
43014;SDS011;28637;50.554;7.032;2024-03-29T13:59:21;0.70;;;0.53;;
43014;SDS011;28637;50.554;7.032;2024-03-29T14:04:23;1.43;;;0.43;;
43014;SDS011;28637;50.554;7.032;2024-03-29T14:09:24;0.50;;;0.45;;
43014;SDS011;28637;50.554;7.032;2024-03-29T14:14:25;1.23;;;0.50;;
43014;SDS011;28637;50.554;7.032;2024-03-29T14:19:26;0.37;;;0.37;;
43014;SDS011;28637;50.554;7.032;2024-03-29T14:24:28;0.60;;;0.40;;
43014;SDS011;28637;50.554;7.032;2024-03-29T14:29:34;0.52;;;0.32;;
43014;SDS011;28637;50.554;7.032;2024-03-29T14:34:35;0.68;;;0.30;;
43014;SDS011;28637;50.554;7.032;2024-03-29T14:39:39;0.40;;;0.30;;
43014;SDS011;28637;50.554;7.032;2024-03-29T14:44:42;2.08;;;0.40;;
43014;SDS011;28637;50.554;7.032;2024-03-29T14:49:42;0.37;;;0.20;;
43014;SDS011;28637;50.554;7.032;2024-03-29T14:54:43;0.77;;;0.40;;
43014;SDS011;28637;50.554;7.032;2024-03-29T14:59:44;1.50;;;0.40;;
43014;SDS011;28637;50.554;7.032;2024-03-29T15:04:44;0.80;;;0.30;;
43014;SDS011;28637;50.554;7.032;2024-03-29T15:09:49;0.43;;;0.30;;
43014;SDS011;28637;50.554;7.032;2024-03-29T15:14:50;1.42;;;0.40;;
43014;SDS011;28637;50.554;7.032;2024-03-29T15:19:51;1.10;;;0.20;;
43014;SDS011;28637;50.554;7.032;2024-03-29T15:24:53;0.52;;;0.30;;
43014;SDS011;28637;50.554;7.032;2024-03-29T15:29:54;0.70;;;0.40;;
43014;SDS011;28637;50.554;7.032;2024-03-29T15:39:56;0.28;;;0.28;;
43014;SDS011;28637;50.554;7.032;2024-03-29T15:44:57;1.77;;;0.30;;
43014;SDS011;28637;50.554;7.032;2024-03-29T15:49:58;0.53;;;0.40;;
43014;SDS011;28637;50.554;7.032;2024-03-29T15:54:59;1.37;;;0.40;;
43014;SDS011;28637;50.554;7.032;2024-03-29T16:00:00;1.27;;;0.38;;
43014;SDS011;28637;50.554;7.032;2024-03-29T16:05:01;1.40;;;0.40;;
43014;SDS011;28637;50.554;7.032;2024-03-29T16:10:01;0.30;;;0.20;;
43014;SDS011;28637;50.554;7.032;2024-03-29T16:15:02;0.60;;;0.30;;
43014;SDS011;28637;50.554;7.032;2024-03-29T16:20:03;1.17;;;0.30;;
43014;SDS011;28637;50.554;7.032;2024-03-29T16:25:05;0.65;;;0.30;;
43014;SDS011;28637;50.554;7.032;2024-03-29T16:30:06;0.77;;;0.40;;
43014;SDS011;28637;50.554;7.032;2024-03-29T16:35:07;0.68;;;0.40;;
43014;SDS011;28637;50.554;7.032;2024-03-29T16:40:08;0.53;;;0.40;;
43014;SDS011;28637;50.554;7.032;2024-03-29T16:45:09;0.30;;;0.20;;
43014;SDS011;28637;50.554;7.032;2024-03-29T16:50:10;0.43;;;0.30;;
43014;SDS011;28637;50.554;7.032;2024-03-29T16:55:10;0.50;;;0.40;;
43014;SDS011;28637;50.554;7.032;2024-03-29T17:00:11;1.10;;;0.40;;
43014;SDS011;28637;50.554;7.032;2024-03-29T17:05:12;0.30;;;0.27;;
43014;SDS011;28637;50.554;7.032;2024-03-29T17:10:13;1.30;;;0.27;;
43014;SDS011;28637;50.554;7.032;2024-03-29T17:15:14;1.03;;;0.30;;
43014;SDS011;28637;50.554;7.032;2024-03-29T17:20:14;0.30;;;0.30;;
43014;SDS011;28637;50.554;7.032;2024-03-29T17:25:15;0.40;;;0.40;;
43014;SDS011;28637;50.554;7.032;2024-03-29T17:30:16;0.40;;;0.30;;
43014;SDS011;28637;50.554;7.032;2024-03-29T17:35:17;0.37;;;0.37;;
43014;SDS011;28637;50.554;7.032;2024-03-29T17:40:18;1.52;;;0.30;;
43014;SDS011;28637;50.554;7.032;2024-03-29T17:45:19;0.20;;;0.20;;
43014;SDS011;28637;50.554;7.032;2024-03-29T17:50:20;1.33;;;0.30;;
43014;SDS011;28637;50.554;7.032;2024-03-29T17:55:20;0.30;;;0.30;;
43014;SDS011;28637;50.554;7.032;2024-03-29T18:00:21;0.80;;;0.30;;
43014;SDS011;28637;50.554;7.032;2024-03-29T18:05:22;1.07;;;0.50;;
43014;SDS011;28637;50.554;7.032;2024-03-29T18:10:25;0.88;;;0.63;;
43014;SDS011;28637;50.554;7.032;2024-03-29T18:15:25;1.60;;;0.43;;
43014;SDS011;28637;50.554;7.032;2024-03-29T18:20:26;0.30;;;0.30;;
43014;SDS011;28637;50.554;7.032;2024-03-29T18:25:27;0.40;;;0.33;;
43014;SDS011;28637;50.554;7.032;2024-03-29T18:30:29;0.43;;;0.37;;
43014;SDS011;28637;50.554;7.032;2024-03-29T18:35:31;0.47;;;0.22;;
43014;SDS011;28637;50.554;7.032;2024-03-29T18:40:33;0.20;;;0.20;;
43014;SDS011;28637;50.554;7.032;2024-03-29T18:45:37;0.50;;;0.23;;
43014;SDS011;28637;50.554;7.032;2024-03-29T18:50:38;1.35;;;0.40;;
43014;SDS011;28637;50.554;7.032;2024-03-29T18:55:39;0.67;;;0.30;;
43014;SDS011;28637;50.554;7.032;2024-03-29T19:00:40;1.83;;;0.53;;
43014;SDS011;28637;50.554;7.032;2024-03-29T19:05:40;0.90;;;0.40;;
43014;SDS011;28637;50.554;7.032;2024-03-29T19:10:41;1.73;;;0.40;;
43014;SDS011;28637;50.554;7.032;2024-03-29T19:15:43;0.70;;;0.40;;
43014;SDS011;28637;50.554;7.032;2024-03-29T19:20:44;0.55;;;0.40;;
43014;SDS011;28637;50.554;7.032;2024-03-29T19:25:45;1.73;;;0.70;;
43014;SDS011;28637;50.554;7.032;2024-03-29T19:30:46;7.90;;;5.27;;
43014;SDS011;28637;50.554;7.032;2024-03-29T19:35:46;5.20;;;3.87;;
43014;SDS011;28637;50.554;7.032;2024-03-29T19:40:47;6.20;;;4.40;;
43014;SDS011;28637;50.554;7.032;2024-03-29T19:45:58;1.40;;;1.10;;
43014;SDS011;28637;50.554;7.032;2024-03-29T19:51:00;0.63;;;0.60;;
43014;SDS011;28637;50.554;7.032;2024-03-29T19:56:01;0.97;;;0.50;;
43014;SDS011;28637;50.554;7.032;2024-03-29T20:01:01;0.63;;;0.30;;
43014;SDS011;28637;50.554;7.032;2024-03-29T20:06:02;0.47;;;0.30;;
43014;SDS011;28637;50.554;7.032;2024-03-29T20:11:11;1.60;;;1.40;;
43014;SDS011;28637;50.554;7.032;2024-03-29T20:16:12;5.18;;;3.10;;
43014;SDS011;28637;50.554;7.032;2024-03-29T20:21:13;5.13;;;2.33;;
43014;SDS011;28637;50.554;7.032;2024-03-29T20:26:14;5.03;;;3.57;;
43014;SDS011;28637;50.554;7.032;2024-03-29T20:31:15;3.47;;;1.87;;
43014;SDS011;28637;50.554;7.032;2024-03-29T20:36:16;2.33;;;1.80;;
43014;SDS011;28637;50.554;7.032;2024-03-29T20:41:16;5.00;;;3.73;;
43014;SDS011;28637;50.554;7.032;2024-03-29T20:46:17;7.50;;;4.97;;
43014;SDS011;28637;50.554;7.032;2024-03-29T20:51:18;7.47;;;4.93;;
43014;SDS011;28637;50.554;7.032;2024-03-29T20:56:19;3.40;;;2.37;;
43014;SDS011;28637;50.554;7.032;2024-03-29T21:01:19;4.20;;;2.93;;
43014;SDS011;28637;50.554;7.032;2024-03-29T21:06:39;8.20;;;6.13;;
43014;SDS011;28637;50.554;7.032;2024-03-29T21:11:40;2.50;;;1.70;;
43014;SDS011;28637;50.554;7.032;2024-03-29T21:16:40;3.70;;;1.30;;
43014;SDS011;28637;50.554;7.032;2024-03-29T21:21:41;3.37;;;1.50;;
43014;SDS011;28637;50.554;7.032;2024-03-29T21:26:43;1.20;;;1.10;;
43014;SDS011;28637;50.554;7.032;2024-03-29T21:31:44;1.23;;;1.10;;
43014;SDS011;28637;50.554;7.032;2024-03-29T21:36:45;1.40;;;1.07;;
43014;SDS011;28637;50.554;7.032;2024-03-29T21:41:45;1.50;;;1.37;;
43014;SDS011;28637;50.554;7.032;2024-03-29T21:46:46;2.87;;;1.10;;
43014;SDS011;28637;50.554;7.032;2024-03-29T21:51:47;1.10;;;1.00;;
43014;SDS011;28637;50.554;7.032;2024-03-29T21:56:49;4.53;;;3.90;;
43014;SDS011;28637;50.554;7.032;2024-03-29T22:01:49;4.13;;;1.13;;
43014;SDS011;28637;50.554;7.032;2024-03-29T22:06:50;1.67;;;0.83;;
43014;SDS011;28637;50.554;7.032;2024-03-29T22:11:51;1.07;;;0.80;;
43014;SDS011;28637;50.554;7.032;2024-03-29T22:16:55;2.10;;;0.80;;
43014;SDS011;28637;50.554;7.032;2024-03-29T22:21:56;1.15;;;0.75;;
43014;SDS011;28637;50.554;7.032;2024-03-29T22:26:57;1.25;;;1.10;;
43014;SDS011;28637;50.554;7.032;2024-03-29T22:31:58;2.97;;;2.40;;
43014;SDS011;28637;50.554;7.032;2024-03-29T22:36:59;1.93;;;1.17;;
43014;SDS011;28637;50.554;7.032;2024-03-29T22:42:02;1.10;;;1.00;;
43014;SDS011;28637;50.554;7.032;2024-03-29T22:47:03;0.87;;;0.80;;
43014;SDS011;28637;50.554;7.032;2024-03-29T22:52:04;3.70;;;2.10;;
43014;SDS011;28637;50.554;7.032;2024-03-29T22:57:06;4.10;;;2.92;;
43014;SDS011;28637;50.554;7.032;2024-03-29T23:02:07;4.50;;;1.30;;
43014;SDS011;28637;50.554;7.032;2024-03-29T23:07:08;1.63;;;1.10;;
43014;SDS011;28637;50.554;7.032;2024-03-29T23:12:12;1.75;;;1.00;;
43014;SDS011;28637;50.554;7.032;2024-03-29T23:17:12;1.17;;;0.90;;
43014;SDS011;28637;50.554;7.032;2024-03-29T23:22:14;0.93;;;0.90;;
43014;SDS011;28637;50.554;7.032;2024-03-29T23:27:15;1.10;;;1.00;;
43014;SDS011;28637;50.554;7.032;2024-03-29T23:32:15;1.87;;;1.10;;
43014;SDS011;28637;50.554;7.032;2024-03-29T23:37:17;2.60;;;1.00;;
43014;SDS011;28637;50.554;7.032;2024-03-29T23:42:18;1.58;;;1.00;;
43014;SDS011;28637;50.554;7.032;2024-03-29T23:47:19;1.20;;;1.10;;
43014;SDS011;28637;50.554;7.032;2024-03-29T23:52:20;1.67;;;1.10;;
43014;SDS011;28637;50.554;7.032;2024-03-29T23:57:20;4.97;;;1.30;;
